Bigneck, Illinois
Current Conditions -  °F | °C
As of 3:54 PM on Friday 31 Oct 2014 (Local Time) from KUIN Reporting Station
Clear Clear  
Wind Chill: 34°   Ceiling: Unl
Heat Index: 43°   Visibility: 10mi
Dew Point: 19°   Wind: 20mph
Humidity: 38%   Direction: 350°N
Pressure: 30.35"   Gusts: NA
Location:  40.1526°N, 91.2028°W
Report Text: KUIN 312054Z AUTO 35017KT 10SM CLR 06/M07 A3035 RMK AO2 PK WND 34027/1958 SLP279 T00611072 55000
Loading
Personal Weather Stations






























Interactive Weather Map
Tropical Storm Tracking
New forecast layout! Learn more

10-Day Weather Forecast

Advertisements
Track Severe Weather on mobile